Time;durP1;ratioP1;P1;durP2;ratioP2;P2;SDS_P1;SDS_P2;PMS_P1;PMS_P2;Temp;Humidity;BMP_temperature;BMP_pressure;BME280_temperature;BME280_humidity;BME280_pressure;Samples;Min_cycle;Max_cycle;Signal;HPM_P1;HPM_P2
2022/03/31 00:00:30;;;;;;;;;;;18.70;54.30;;;;;;5033033;28;1186;-69
2022/03/31 00:02:56;;;;;;;;;;;18.80;54.30;;;;;;5031285;28;990;-70
2022/03/31 00:05:21;;;;;;;;;;;18.80;54.30;;;;;;5031642;28;765;-70
2022/03/31 00:07:50;;;;;;;;;;;18.80;54.40;;;;;;5032318;28;807;-70
2022/03/31 00:10:22;;;;;;;;;;;18.80;54.40;;;;;;5031329;28;1224;-69
2022/03/31 00:12:48;;;;;;;;;;;18.80;54.40;;;;;;5032611;28;815;-70
2022/03/31 00:15:13;;;;;;;;;;;18.70;54.30;;;;;;5032541;28;880;-70
2022/03/31 00:17:39;;;;;;;;;;;18.70;54.30;;;;;;5030799;28;1902;-70
2022/03/31 00:20:04;;;;;;;;;;;18.80;54.40;;;;;;5033925;28;1221;-70
2022/03/31 00:22:30;;;;;;;;;;;18.80;54.40;;;;;;5036361;28;1034;-70
2022/03/31 00:24:55;;;;;;;;;;;18.80;54.40;;;;;;5034533;28;2243;-70
2022/03/31 00:27:21;;;;;;;;;;;18.70;54.30;;;;;;5016355;28;2283;-70
2022/03/31 00:29:47;;;;;;;;;;;18.80;54.30;;;;;;5042817;28;1363;-71
2022/03/31 00:32:13;;;;;;;;;;;18.80;54.30;;;;;;5043836;28;1144;-71
2022/03/31 00:34:39;;;;;;;;;;;18.70;54.30;;;;;;5045758;28;1255;-70
2022/03/31 00:37:04;;;;;;;;;;;18.80;54.30;;;;;;5044567;28;1938;-71
2022/03/31 00:39:31;;;;;;;;;;;18.80;54.30;;;;;;5040603;28;1260;-71
2022/03/31 00:41:57;;;;;;;;;;;18.80;54.30;;;;;;5045768;28;1287;-71
2022/03/31 00:44:23;;;;;;;;;;;18.70;54.30;;;;;;5045084;28;1184;-72
2022/03/31 00:46:52;;;;;;;;;;;18.70;54.30;;;;;;5044251;28;1254;-72
2022/03/31 00:49:21;;;;;;;;;;;18.80;54.30;;;;;;5044088;28;1367;-72
2022/03/31 00:51:47;;;;;;;;;;;18.80;54.30;;;;;;5046467;28;1294;-71
2022/03/31 00:54:12;;;;;;;;;;;18.70;54.30;;;;;;5043389;28;1149;-72
2022/03/31 00:56:37;;;;;;;;;;;18.80;54.30;;;;;;5027268;28;1906;-72
2022/03/31 00:59:04;;;;;;;;;;;18.80;54.30;;;;;;5042143;28;1375;-72
2022/03/31 01:01:30;;;;;;;;;;;18.80;54.40;;;;;;5026990;28;1200;-72
2022/03/31 01:03:56;;;;;;;;;;;18.80;54.30;;;;;;5027702;28;1375;-72
2022/03/31 01:06:22;;;;;;;;;;;18.80;54.30;;;;;;5044220;28;1267;-72
2022/03/31 01:08:47;;;;;;;;;;;18.80;54.30;;;;;;5044078;28;1313;-72
2022/03/31 01:11:13;;;;;;;;;;;18.80;54.40;;;;;;5045427;28;1227;-69
2022/03/31 01:13:38;;;;;;;;;;;18.70;54.30;;;;;;5035525;28;808;-68
2022/03/31 01:16:04;;;;;;;;;;;18.70;54.30;;;;;;5034635;28;887;-68
2022/03/31 01:18:29;;;;;;;;;;;18.80;54.40;;;;;;5035096;28;1953;-67
2022/03/31 01:20:55;;;;;;;;;;;18.80;54.40;;;;;;5035582;28;784;-67
2022/03/31 01:23:21;;;;;;;;;;;18.80;54.40;;;;;;5034183;28;817;-68
2022/03/31 01:25:47;;;;;;;;;;;18.80;54.30;;;;;;5034887;28;804;-67
2022/03/31 01:28:12;;;;;;;;;;;18.70;54.30;;;;;;5033889;28;1189;-69
2022/03/31 01:30:38;;;;;;;;;;;18.80;54.40;;;;;;5034549;28;1249;-68
2022/03/31 01:33:03;;;;;;;;;;;18.70;54.30;;;;;;5034056;28;839;-68
2022/03/31 01:35:28;;;;;;;;;;;18.70;54.30;;;;;;5033642;28;1010;-68
2022/03/31 01:37:54;;;;;;;;;;;18.80;54.30;;;;;;5033800;28;1906;-68
2022/03/31 01:40:19;;;;;;;;;;;18.80;54.30;;;;;;5034833;28;1178;-68
2022/03/31 01:42:45;;;;;;;;;;;18.80;54.30;;;;;;5034951;28;680;-68
2022/03/31 01:45:11;;;;;;;;;;;18.80;54.30;;;;;;5033643;28;1061;-67
2022/03/31 01:47:37;;;;;;;;;;;18.80;54.30;;;;;;5033562;28;1061;-70
2022/03/31 01:50:03;;;;;;;;;;;18.80;54.30;;;;;;5033592;28;1191;-68
2022/03/31 01:52:28;;;;;;;;;;;18.80;54.40;;;;;;5033771;28;767;-68
2022/03/31 01:54:54;;;;;;;;;;;18.80;54.30;;;;;;5033557;28;811;-68
2022/03/31 01:57:19;;;;;;;;;;;18.80;54.30;;;;;;5033126;28;1955;-68
2022/03/31 01:59:45;;;;;;;;;;;18.80;54.40;;;;;;5033273;28;1225;-67
2022/03/31 02:02:12;;;;;;;;;;;18.80;54.40;;;;;;5033548;28;920;-68
2022/03/31 02:04:37;;;;;;;;;;;18.80;54.30;;;;;;5034598;28;940;-68
2022/03/31 02:07:03;;;;;;;;;;;18.80;54.40;;;;;;5033083;28;1061;-68
2022/03/31 02:09:29;;;;;;;;;;;18.80;54.40;;;;;;5034361;28;1189;-70
2022/03/31 02:11:54;;;;;;;;;;;18.70;54.30;;;;;;5034286;28;925;-71
2022/03/31 02:14:19;;;;;;;;;;;18.80;54.40;;;;;;5034196;28;915;-70
2022/03/31 02:16:45;;;;;;;;;;;18.80;54.40;;;;;;5034022;28;1898;-71
2022/03/31 02:19:11;;;;;;;;;;;18.80;54.40;;;;;;5042867;23;3827;-67
2022/03/31 02:21:37;;;;;;;;;;;18.80;54.40;;;;;;5031762;28;851;-67
2022/03/31 02:24:02;;;;;;;;;;;18.80;54.40;;;;;;5033469;28;1044;-68
2022/03/31 02:26:28;;;;;;;;;;;18.80;54.40;;;;;;5034195;28;799;-68
2022/03/31 02:28:53;;;;;;;;;;;18.70;54.40;;;;;;5032751;28;1229;-67
2022/03/31 02:31:18;;;;;;;;;;;18.80;54.40;;;;;;5046019;28;1445;-68
2022/03/31 02:33:44;;;;;;;;;;;18.80;54.40;;;;;;5054180;28;870;-67
2022/03/31 02:36:09;;;;;;;;;;;18.70;54.40;;;;;;5049665;28;1394;-68
2022/03/31 02:38:36;;;;;;;;;;;18.80;54.50;;;;;;5033827;28;1906;-67
2022/03/31 02:41:05;;;;;;;;;;;18.80;54.40;;;;;;5033604;28;835;-68
2022/03/31 02:43:31;;;;;;;;;;;18.80;54.50;;;;;;5033544;28;878;-67
2022/03/31 02:45:56;;;;;;;;;;;18.80;54.50;;;;;;5032479;28;831;-67
2022/03/31 02:48:22;;;;;;;;;;;18.70;54.40;;;;;;5034010;28;993;-67
2022/03/31 02:50:47;;;;;;;;;;;18.80;54.50;;;;;;5033783;28;1168;-67
2022/03/31 02:55:57;;;;;;;;;;;18.70;54.40;;;;;;5033375;28;844;-68
2022/03/31 02:58:22;;;;;;;;;;;18.70;54.40;;;;;;5032553;28;1962;-67
2022/03/31 03:00:48;;;;;;;;;;;18.70;54.50;;;;;;5033478;28;1516;-68
2022/03/31 03:03:14;;;;;;;;;;;18.70;54.50;;;;;;5032610;28;843;-67
2022/03/31 03:05:42;;;;;;;;;;;18.70;54.50;;;;;;5033315;28;808;-68
2022/03/31 03:08:07;;;;;;;;;;;18.70;54.50;;;;;;5033692;28;847;-67
2022/03/31 03:10:33;;;;;;;;;;;18.70;54.50;;;;;;5032006;28;1307;-67
2022/03/31 03:12:59;;;;;;;;;;;18.70;54.50;;;;;;5033475;28;927;-68
2022/03/31 03:15:27;;;;;;;;;;;18.70;54.50;;;;;;5032230;28;832;-68
2022/03/31 03:17:52;;;;;;;;;;;18.70;54.50;;;;;;5032064;28;1894;-68
2022/03/31 03:20:18;;;;;;;;;;;18.70;54.50;;;;;;5033169;28;1282;-67
2022/03/31 03:22:44;;;;;;;;;;;18.70;54.50;;;;;;5032203;28;867;-68
2022/03/31 03:25:09;;;;;;;;;;;18.70;54.60;;;;;;5033157;28;791;-68
2022/03/31 03:27:35;;;;;;;;;;;18.70;54.50;;;;;;5032908;28;791;-68
2022/03/31 03:30:00;;;;;;;;;;;18.70;54.50;;;;;;5034383;28;1703;-68
2022/03/31 03:32:26;;;;;;;;;;;18.70;54.60;;;;;;5052317;28;910;-68
2022/03/31 03:34:51;;;;;;;;;;;18.70;54.50;;;;;;5051786;28;962;-67
2022/03/31 03:37:17;;;;;;;;;;;18.70;54.60;;;;;;5039399;28;1902;-67
2022/03/31 03:39:43;;;;;;;;;;;18.70;54.50;;;;;;5032892;28;1282;-67
2022/03/31 03:42:09;;;;;;;;;;;18.70;54.50;;;;;;5027724;28;2323;-66
2022/03/31 03:44:35;;;;;;;;;;;18.70;54.50;;;;;;5030190;28;1215;-65
2022/03/31 03:47:00;;;;;;;;;;;18.70;54.40;;;;;;5032972;28;1699;-65
2022/03/31 03:49:26;;;;;;;;;;;18.70;54.40;;;;;;5033160;28;1456;-68
2022/03/31 03:51:51;;;;;;;;;;;18.80;54.40;;;;;;5032357;28;891;-68
2022/03/31 03:54:17;;;;;;;;;;;18.80;54.30;;;;;;5036297;28;883;-69
2022/03/31 03:56:43;;;;;;;;;;;18.80;54.20;;;;;;5036017;28;1891;-69
2022/03/31 03:59:08;;;;;;;;;;;18.90;54.20;;;;;;5037525;28;1200;-67
2022/03/31 04:01:34;;;;;;;;;;;18.90;54.10;;;;;;5037001;28;1567;-67
2022/03/31 04:03:59;;;;;;;;;;;18.90;54.00;;;;;;5035976;28;930;-68
2022/03/31 04:06:24;;;;;;;;;;;19.00;54.00;;;;;;5035632;28;879;-68
2022/03/31 04:08:50;;;;;;;;;;;19.00;53.90;;;;;;5036805;28;1274;-68
2022/03/31 04:11:16;;;;;;;;;;;19.00;53.80;;;;;;5037330;28;764;-67
2022/03/31 04:13:42;;;;;;;;;;;19.00;53.80;;;;;;5037549;28;795;-67
2022/03/31 04:16:07;;;;;;;;;;;19.00;53.70;;;;;;5036706;28;803;-69
2022/03/31 04:18:33;;;;;;;;;;;19.00;53.70;;;;;;5036940;28;1958;-67
2022/03/31 04:21:02;;;;;;;;;;;19.10;53.70;;;;;;5037077;28;960;-67
2022/03/31 04:23:27;;;;;;;;;;;19.10;53.70;;;;;;5037207;28;904;-67
2022/03/31 04:25:53;;;;;;;;;;;19.10;53.70;;;;;;5031088;28;2122;-67
2022/03/31 04:28:18;;;;;;;;;;;19.10;53.70;;;;;;5035026;28;1847;-67
2022/03/31 04:30:43;;;;;;;;;;;19.10;53.70;;;;;;5043569;28;1781;-67
2022/03/31 04:33:09;;;;;;;;;;;19.10;53.70;;;;;;5036748;28;1326;-68
2022/03/31 04:35:36;;;;;;;;;;;19.10;53.70;;;;;;5035059;28;1834;-68
2022/03/31 04:38:02;;;;;;;;;;;19.10;53.70;;;;;;5036256;28;1898;-68
2022/03/31 04:40:27;;;;;;;;;;;19.10;53.70;;;;;;5036158;28;1295;-67
2022/03/31 04:42:53;;;;;;;;;;;19.10;53.70;;;;;;5036304;28;870;-68
2022/03/31 04:45:18;;;;;;;;;;;19.10;53.70;;;;;;5035971;28;927;-67
2022/03/31 04:47:44;;;;;;;;;;;19.10;53.70;;;;;;5034416;28;2111;-67
2022/03/31 04:50:09;;;;;;;;;;;19.10;53.70;;;;;;5040398;28;1591;-67
2022/03/31 04:52:35;;;;;;;;;;;19.10;53.70;;;;;;5055638;28;1577;-67
2022/03/31 04:55:00;;;;;;;;;;;19.10;53.60;;;;;;5047677;28;1592;-67
2022/03/31 04:57:25;;;;;;;;;;;19.10;53.60;;;;;;5054337;28;1898;-68
2022/03/31 04:59:51;;;;;;;;;;;19.10;53.60;;;;;;5049082;28;1492;-67
2022/03/31 05:02:18;;;;;;;;;;;19.10;53.60;;;;;;5036485;28;1338;-67
2022/03/31 05:04:43;;;;;;;;;;;19.10;53.60;;;;;;5045505;28;1329;-67
2022/03/31 05:07:09;;;;;;;;;;;19.10;53.60;;;;;;5054123;28;803;-66
2022/03/31 05:09:34;;;;;;;;;;;19.10;53.60;;;;;;5055441;28;1704;-67
2022/03/31 05:12:00;;;;;;;;;;;19.10;53.60;;;;;;5054364;28;894;-67
2022/03/31 05:14:25;;;;;;;;;;;19.10;53.80;;;;;;5055614;28;1242;-68
2022/03/31 05:16:51;;;;;;;;;;;19.10;53.50;;;;;;5052580;28;1953;-68
2022/03/31 05:19:17;;;;;;;;;;;19.10;53.50;;;;;;5046607;28;1628;-69
2022/03/31 05:21:43;;;;;;;;;;;19.10;53.50;;;;;;5056786;28;981;-67
2022/03/31 05:24:09;;;;;;;;;;;19.10;53.50;;;;;;5054820;28;1017;-67
2022/03/31 05:26:35;;;;;;;;;;;19.10;53.50;;;;;;5055083;28;864;-67
2022/03/31 05:29:00;;;;;;;;;;;19.10;53.50;;;;;;5047679;28;1553;-67
2022/03/31 05:31:26;;;;;;;;;;;19.10;53.50;;;;;;5039356;28;1316;-68
2022/03/31 05:33:51;;;;;;;;;;;19.20;53.50;;;;;;5034080;28;1029;-67
2022/03/31 05:36:16;;;;;;;;;;;19.10;53.50;;;;;;5034913;28;1385;-68
2022/03/31 05:38:42;;;;;;;;;;;19.10;53.50;;;;;;5038088;28;2079;-66
2022/03/31 05:41:07;;;;;;;;;;;19.20;53.50;;;;;;5038080;28;1424;-67
2022/03/31 05:43:33;;;;;;;;;;;19.20;53.50;;;;;;5035595;28;875;-67
2022/03/31 05:45:58;;;;;;;;;;;19.20;53.50;;;;;;5035093;28;879;-66
2022/03/31 05:48:23;;;;;;;;;;;19.20;53.50;;;;;;5035285;28;867;-67
2022/03/31 05:50:49;;;;;;;;;;;19.20;53.50;;;;;;5035598;28;1153;-71
2022/03/31 05:53:15;;;;;;;;;;;19.20;53.50;;;;;;5034985;28;832;-68
2022/03/31 05:55:45;;;;;;;;;;;19.20;53.40;;;;;;5034802;28;920;-69
2022/03/31 05:58:10;;;;;;;;;;;19.20;53.50;;;;;;5034940;28;1902;-71
2022/03/31 06:00:36;;;;;;;;;;;19.20;53.50;;;;;;5033496;28;1726;-66
2022/03/31 06:03:01;;;;;;;;;;;19.20;53.50;;;;;;5034854;28;796;-68
2022/03/31 06:05:26;;;;;;;;;;;19.20;53.50;;;;;;5033532;28;862;-66
2022/03/31 06:07:52;;;;;;;;;;;19.10;53.40;;;;;;5033924;28;1038;-66
2022/03/31 06:10:18;;;;;;;;;;;19.20;53.50;;;;;;5034534;28;1314;-65
2022/03/31 06:12:44;;;;;;;;;;;19.20;53.50;;;;;;5033308;28;839;-67
2022/03/31 06:15:09;;;;;;;;;;;19.20;53.50;;;;;;5035513;28;779;-69
2022/03/31 06:17:35;;;;;;;;;;;19.20;53.50;;;;;;5034654;28;1886;-69
2022/03/31 06:20:00;;;;;;;;;;;19.20;53.50;;;;;;5036033;28;1284;-68
2022/03/31 06:22:26;;;;;;;;;;;19.20;53.50;;;;;;5035997;28;993;-68
2022/03/31 06:24:51;;;;;;;;;;;19.20;53.50;;;;;;5034464;28;808;-69
2022/03/31 06:27:17;;;;;;;;;;;19.20;53.50;;;;;;5034182;28;850;-68
2022/03/31 06:29:45;;;;;;;;;;;19.20;53.50;;;;;;5034316;28;1229;-69
2022/03/31 06:32:10;;;;;;;;;;;19.20;53.50;;;;;;5052500;28;1600;-69
2022/03/31 06:34:36;;;;;;;;;;;19.20;53.50;;;;;;5052775;28;820;-70
2022/03/31 06:37:01;;;;;;;;;;;19.20;53.50;;;;;;5042633;28;1898;-70
2022/03/31 06:39:27;;;;;;;;;;;19.20;53.50;;;;;;5034243;28;1230;-69
2022/03/31 06:41:52;;;;;;;;;;;19.10;53.50;;;;;;5033993;28;779;-71
2022/03/31 06:44:19;;;;;;;;;;;19.20;53.50;;;;;;5033894;28;931;-70
2022/03/31 06:46:45;;;;;;;;;;;19.20;53.50;;;;;;5033799;28;922;-68
2022/03/31 06:49:11;;;;;;;;;;;19.20;54.10;;;;;;5032722;28;1185;-69
2022/03/31 06:51:36;;;;;;;;;;;19.20;53.50;;;;;;5034169;28;807;-70
2022/03/31 06:54:03;;;;;;;;;;;19.20;53.50;;;;;;5032486;28;1482;-70
2022/03/31 06:56:28;;;;;;;;;;;19.20;53.50;;;;;;5033266;28;1938;-68
2022/03/31 06:58:54;;;;;;;;;;;19.20;53.40;;;;;;5033671;28;1199;-67
2022/03/31 07:01:19;;;;;;;;;;;19.30;53.30;;;;;;5033493;28;1560;-67
2022/03/31 07:03:45;;;;;;;;;;;19.40;53.20;;;;;;5033597;28;1058;-67
2022/03/31 07:06:10;;;;;;;;;;;19.50;53.10;;;;;;5033289;28;847;-67
2022/03/31 07:08:36;;;;;;;;;;;19.60;53.00;;;;;;5032176;28;1188;-67
2022/03/31 07:11:02;;;;;;;;;;;19.70;52.80;;;;;;5033377;28;820;-67
2022/03/31 07:13:28;;;;;;;;;;;19.80;52.60;;;;;;5032582;28;851;-67
2022/03/31 07:15:53;;;;;;;;;;;19.90;52.40;;;;;;5031869;28;954;-67
2022/03/31 07:18:19;;;;;;;;;;;20.00;52.20;;;;;;5032013;28;1949;-67
2022/03/31 07:20:44;;;;;;;;;;;20.10;52.00;;;;;;5032959;28;1179;-66
2022/03/31 07:23:10;;;;;;;;;;;20.20;51.80;;;;;;5033448;28;1026;-67
2022/03/31 07:25:35;;;;;;;;;;;20.30;51.60;;;;;;5033034;28;799;-68
2022/03/31 07:28:01;;;;;;;;;;;20.30;51.40;;;;;;5031771;28;891;-67
2022/03/31 07:30:26;;;;;;;;;;;20.40;51.20;;;;;;5036664;28;1462;-67
2022/03/31 07:32:58;;;;;;;;;;;20.40;51.20;;;;;;5053020;28;780;-67
2022/03/31 07:35:24;;;;;;;;;;;20.50;51.10;;;;;;5053160;28;820;-67
2022/03/31 07:37:51;;;;;;;;;;;20.50;51.00;;;;;;5034901;28;1902;-67
2022/03/31 07:40:18;;;;;;;;;;;20.50;51.00;;;;;;5032986;28;1278;-67
2022/03/31 07:42:44;;;;;;;;;;;20.50;51.00;;;;;;5033035;28;835;-67
2022/03/31 07:45:11;;;;;;;;;;;20.50;51.00;;;;;;5033320;28;886;-67
2022/03/31 07:47:37;;;;;;;;;;;20.60;51.00;;;;;;5031459;28;879;-68
2022/03/31 07:50:03;;;;;;;;;;;20.60;51.60;;;;;;5031930;28;1194;-67
2022/03/31 07:52:28;;;;;;;;;;;20.60;51.00;;;;;;5031707;28;891;-67
2022/03/31 07:54:54;;;;;;;;;;;20.60;50.90;;;;;;5033014;28;899;-67
2022/03/31 07:57:19;;;;;;;;;;;20.60;50.90;;;;;;5031378;28;1976;-67
2022/03/31 07:59:45;;;;;;;;;;;20.60;50.90;;;;;;5033071;28;1534;-67
2022/03/31 08:02:10;;;;;;;;;;;20.50;50.90;;;;;;5032807;28;808;-66
2022/03/31 08:04:35;;;;;;;;;;;20.50;50.90;;;;;;5033099;28;939;-68
2022/03/31 08:07:01;;;;;;;;;;;20.50;50.90;;;;;;5031853;28;2323;-68
2022/03/31 08:09:26;;;;;;;;;;;20.50;51.00;;;;;;5020904;28;2404;-68
2022/03/31 08:11:52;;;;;;;;;;;20.50;51.00;;;;;;5026205;28;1883;-66
2022/03/31 08:14:21;;;;;;;;;;;20.50;51.10;;;;;;5028103;28;1877;-66
2022/03/31 08:16:47;;;;;;;;;;;20.50;51.10;;;;;;5032306;28;1969;-67
2022/03/31 08:19:12;;;;;;;;;;;20.50;51.20;;;;;;5054354;22;1801;-70
2022/03/31 08:21:38;;;;;;;;;;;20.40;51.20;;;;;;5028164;28;1756;-69
2022/03/31 08:24:03;;;;;;;;;;;20.50;51.20;;;;;;5032596;28;1032;-69
2022/03/31 08:26:29;;;;;;;;;;;20.40;51.20;;;;;;5032388;28;870;-68
2022/03/31 08:28:54;;;;;;;;;;;20.40;51.30;;;;;;5032498;28;922;-69
2022/03/31 08:31:20;;;;;;;;;;;20.40;51.30;;;;;;5032242;28;1426;-70
2022/03/31 08:33:45;;;;;;;;;;;20.40;51.30;;;;;;5032721;28;930;-70
2022/03/31 08:36:11;;;;;;;;;;;20.40;51.40;;;;;;5032255;28;883;-71
2022/03/31 08:38:36;;;;;;;;;;;20.40;51.40;;;;;;5032639;28;1910;-71
2022/03/31 08:41:02;;;;;;;;;;;20.30;51.40;;;;;;5034911;28;1205;-71
2022/03/31 08:43:27;;;;;;;;;;;20.40;51.50;;;;;;5036310;28;1029;-71
2022/03/31 08:45:55;;;;;;;;;;;20.30;51.50;;;;;;5034754;28;811;-72
2022/03/31 08:48:24;;;;;;;;;;;20.30;51.60;;;;;;5018727;28;1264;-71
2022/03/31 08:50:49;;;;;;;;;;;20.30;51.60;;;;;;5035909;28;1205;-71
2022/03/31 08:53:15;;;;;;;;;;;20.30;51.60;;;;;;5018480;28;731;-71
2022/03/31 08:55:40;;;;;;;;;;;20.30;51.70;;;;;;5036183;28;784;-72
2022/03/31 08:58:06;;;;;;;;;;;20.30;51.70;;;;;;5035889;28;1898;-71
2022/03/31 09:00:31;;;;;;;;;;;20.20;51.70;;;;;;5035874;28;1452;-70
2022/03/31 09:03:00;;;;;;;;;;;20.20;51.70;;;;;;5033239;28;985;-71
2022/03/31 09:05:26;;;;;;;;;;;20.20;51.80;;;;;;5034848;28;1036;-71
2022/03/31 09:07:52;;;;;;;;;;;20.20;51.80;;;;;;5035385;28;953;-71
2022/03/31 09:10:44;;;;;;;;;;;20.20;51.90;;;;;;5034549;28;1296;-70
2022/03/31 09:13:40;;;;;;;;;;;20.20;51.90;;;;;;5032142;28;1240;-71
2022/03/31 09:16:06;;;;;;;;;;;20.20;51.90;;;;;;5035170;28;1053;-71
2022/03/31 09:18:35;;;;;;;;;;;20.10;51.90;;;;;;5033904;28;1965;-71
2022/03/31 09:21:02;;;;;;;;;;;20.20;52.00;;;;;;5033922;28;1195;-71
2022/03/31 09:23:28;;;;;;;;;;;20.20;52.00;;;;;;5033872;28;1029;-71
2022/03/31 09:26:06;;;;;;;;;;;20.10;52.00;;;;;;5033526;28;1163;-71
2022/03/31 09:28:32;;;;;;;;;;;20.20;52.00;;;;;;5035188;28;800;-71
2022/03/31 09:30:57;;;;;;;;;;;20.10;52.00;;;;;;5035073;28;1513;-70
2022/03/31 09:33:32;;;;;;;;;;;20.10;52.10;;;;;;5035046;28;949;-70
2022/03/31 09:36:07;;;;;;;;;;;20.10;52.10;;;;;;5033028;28;1451;-71
2022/03/31 09:38:35;;;;;;;;;;;20.10;52.10;;;;;;5033719;28;1902;-71
2022/03/31 09:41:03;;;;;;;;;;;20.10;52.10;;;;;;5034601;28;1303;-71
2022/03/31 09:43:37;;;;;;;;;;;20.10;52.10;;;;;;5034741;28;831;-71
2022/03/31 09:46:03;;;;;;;;;;;20.10;52.20;;;;;;5034409;28;888;-71
2022/03/31 09:48:28;;;;;;;;;;;20.10;52.20;;;;;;5034323;28;1322;-71
2022/03/31 09:50:54;;;;;;;;;;;20.10;52.20;;;;;;5034267;28;1207;-71
2022/03/31 09:53:19;;;;;;;;;;;20.10;52.20;;;;;;5034566;28;976;-70
2022/03/31 09:55:45;;;;;;;;;;;20.00;52.20;;;;;;5034390;28;811;-71
2022/03/31 09:58:17;;;;;;;;;;;20.10;52.30;;;;;;5034335;28;1895;-71
2022/03/31 10:00:42;;;;;;;;;;;20.00;52.20;;;;;;5032988;28;1409;-70
2022/03/31 10:03:08;;;;;;;;;;;20.00;52.20;;;;;;5032953;28;878;-70
2022/03/31 10:05:33;;;;;;;;;;;20.00;52.20;;;;;;5032889;28;852;-70
2022/03/31 10:07:58;;;;;;;;;;;20.00;52.30;;;;;;5032924;28;898;-70
2022/03/31 10:10:24;;;;;;;;;;;20.00;52.30;;;;;;5033155;28;1216;-70
2022/03/31 10:12:54;;;;;;;;;;;20.00;52.30;;;;;;5034551;28;838;-70
2022/03/31 10:15:24;;;;;;;;;;;20.00;52.40;;;;;;5033208;28;898;-71
2022/03/31 10:17:50;;;;;;;;;;;20.00;52.40;;;;;;5032727;28;1941;-70
2022/03/31 10:20:16;;;;;;;;;;;20.00;52.40;;;;;;5034044;28;1240;-71
2022/03/31 10:25:36;;;;;;;;;;;19.90;52.40;;;;;;5032266;28;2305;-70
2022/03/31 10:28:14;;;;;;;;;;;19.90;52.40;;;;;;5030691;28;1621;-70
2022/03/31 10:30:41;;;;;;;;;;;19.90;52.50;;;;;;5032253;28;1668;-70
2022/03/31 10:33:08;;;;;;;;;;;19.90;52.50;;;;;;5040884;28;1505;-69
2022/03/31 10:35:42;;;;;;;;;;;19.90;52.50;;;;;;5042659;28;1291;-70
2022/03/31 10:38:14;;;;;;;;;;;19.90;52.60;;;;;;5041663;28;1906;-70
2022/03/31 10:40:43;;;;;;;;;;;19.90;52.60;;;;;;5042274;28;1395;-70
2022/03/31 10:43:27;;;;;;;;;;;19.90;52.60;;;;;;5042230;28;1608;-70
2022/03/31 10:45:54;;;;;;;;;;;19.80;52.60;;;;;;5042783;28;1303;-70
2022/03/31 10:48:21;;;;;;;;;;;19.80;52.60;;;;;;5040462;28;1695;-72
2022/03/31 10:50:47;;;;;;;;;;;19.90;52.70;;;;;;5041722;28;1550;-71
2022/03/31 10:53:12;;;;;;;;;;;19.90;52.60;;;;;;5041542;28;1575;-70
2022/03/31 10:55:43;;;;;;;;;;;19.90;52.60;;;;;;5040461;28;1587;-70
2022/03/31 10:58:25;;;;;;;;;;;19.90;52.50;;;;;;5041920;28;1947;-70
2022/03/31 11:00:51;;;;;;;;;;;20.00;52.50;;;;;;5040888;28;1644;-69
2022/03/31 11:03:17;;;;;;;;;;;20.00;52.40;;;;;;5023329;28;1523;-71
2022/03/31 11:05:42;;;;;;;;;;;20.10;52.30;;;;;;5042136;28;1369;-69
2022/03/31 11:08:08;;;;;;;;;;;20.10;52.20;;;;;;5041749;28;1506;-71
2022/03/31 11:10:41;;;;;;;;;;;20.10;52.20;;;;;;5041246;28;1338;-70
2022/03/31 11:13:07;;;;;;;;;;;20.20;52.20;;;;;;5023889;28;1427;-70
2022/03/31 11:15:33;;;;;;;;;;;20.20;52.00;;;;;;5035824;28;2274;-70
2022/03/31 11:18:01;;;;;;;;;;;20.20;52.00;;;;;;5030311;28;2092;-70
2022/03/31 11:20:27;;;;;;;;;;;20.20;52.00;;;;;;5032047;28;1552;-70
2022/03/31 11:23:03;;;;;;;;;;;20.20;52.00;;;;;;5033136;28;1520;-70
2022/03/31 11:25:28;;;;;;;;;;;20.20;52.00;;;;;;5032187;28;1445;-69
2022/03/31 11:27:56;;;;;;;;;;;20.20;51.90;;;;;;5040647;28;1426;-73
2022/03/31 11:30:23;;;;;;;;;;;20.20;52.00;;;;;;5041400;28;1465;-70
2022/03/31 11:32:52;;;;;;;;;;;20.20;52.00;;;;;;5038486;28;1615;-72
2022/03/31 11:35:21;;;;;;;;;;;20.20;52.00;;;;;;5013826;28;1540;-70
2022/03/31 11:37:46;;;;;;;;;;;20.20;52.00;;;;;;5049803;28;1963;-71
2022/03/31 11:40:13;;;;;;;;;;;20.20;52.00;;;;;;5045436;28;1375;-71
2022/03/31 11:42:45;;;;;;;;;;;20.20;52.00;;;;;;5043172;28;1517;-70
2022/03/31 11:45:21;;;;;;;;;;;20.20;52.00;;;;;;5019941;28;1890;-70
2022/03/31 11:47:55;;;;;;;;;;;20.20;52.00;;;;;;5036642;28;1516;-70
2022/03/31 11:50:20;;;;;;;;;;;20.20;52.00;;;;;;5014852;28;1413;-71
2022/03/31 11:52:48;;;;;;;;;;;20.20;52.00;;;;;;5030897;28;915;-70
2022/03/31 11:55:14;;;;;;;;;;;20.20;52.00;;;;;;5032240;28;820;-70
2022/03/31 11:57:39;;;;;;;;;;;20.20;52.00;;;;;;5036726;28;1902;-70
2022/03/31 12:00:09;;;;;;;;;;;20.20;52.00;;;;;;5042626;28;1439;-71
2022/03/31 12:02:34;;;;;;;;;;;20.20;52.00;;;;;;5043807;28;1547;-70
2022/03/31 12:05:01;;;;;;;;;;;20.20;52.00;;;;;;5024161;28;1334;-71
2022/03/31 12:07:27;;;;;;;;;;;20.20;52.00;;;;;;5046775;28;1545;-70
2022/03/31 12:09:52;;;;;;;;;;;20.20;52.10;;;;;;5051028;28;1544;-70
2022/03/31 12:12:18;;;;;;;;;;;20.10;52.00;;;;;;5052481;28;949;-71
2022/03/31 12:14:53;;;;;;;;;;;20.10;52.10;;;;;;5048826;28;1315;-70
2022/03/31 12:17:19;;;;;;;;;;;20.20;52.10;;;;;;5045078;28;1902;-70
2022/03/31 12:19:44;;;;;;;;;;;20.20;52.10;;;;;;5045807;28;1421;-70
2022/03/31 12:22:09;;;;;;;;;;;20.10;52.10;;;;;;5047296;28;1613;-70
2022/03/31 12:24:45;;;;;;;;;;;20.10;52.20;;;;;;5046624;28;1623;-70
2022/03/31 12:27:13;;;;;;;;;;;20.10;52.20;;;;;;5052755;28;1517;-70
2022/03/31 12:29:38;;;;;;;;;;;20.10;52.20;;;;;;5040484;28;1571;-70
2022/03/31 12:32:04;;;;;;;;;;;20.10;52.20;;;;;;5040709;28;1454;-70
2022/03/31 12:34:30;;;;;;;;;;;20.10;52.20;;;;;;5042939;28;1475;-71
2022/03/31 12:36:55;;;;;;;;;;;20.10;52.20;;;;;;5046189;28;1969;-70
2022/03/31 12:39:20;;;;;;;;;;;20.10;52.30;;;;;;5041828;28;1912;-70
2022/03/31 12:41:53;;;;;;;;;;;20.10;52.30;;;;;;5044827;28;1511;-71
2022/03/31 12:44:21;;;;;;;;;;;20.10;52.30;;;;;;5039302;28;1384;-71
2022/03/31 12:46:53;;;;;;;;;;;20.10;52.30;;;;;;5042017;28;1597;-69
2022/03/31 12:49:19;;;;;;;;;;;20.10;52.30;;;;;;5043551;28;1505;-69
2022/03/31 12:51:55;;;;;;;;;;;20.10;52.40;;;;;;5043430;28;1501;-69
2022/03/31 12:54:24;;;;;;;;;;;20.10;52.40;;;;;;5043066;28;1309;-70
2022/03/31 12:56:50;;;;;;;;;;;20.00;52.40;;;;;;5042879;28;1952;-68
2022/03/31 12:59:17;;;;;;;;;;;20.00;52.40;;;;;;5044810;28;1518;-69
2022/03/31 13:01:53;;;;;;;;;;;20.00;52.40;;;;;;5045721;28;1592;-69
2022/03/31 13:04:18;;;;;;;;;;;20.00;52.40;;;;;;5041953;28;1582;-70
2022/03/31 13:06:43;;;;;;;;;;;20.00;52.40;;;;;;5044529;28;1524;-70
2022/03/31 13:09:09;;;;;;;;;;;20.00;52.50;;;;;;5046604;28;1587;-70
2022/03/31 13:11:34;;;;;;;;;;;20.00;52.50;;;;;;5044501;28;1495;-69
2022/03/31 13:14:00;;;;;;;;;;;20.00;52.50;;;;;;5045093;28;1512;-71
2022/03/31 13:16:27;;;;;;;;;;;20.00;52.50;;;;;;5044584;28;1577;-69
2022/03/31 13:18:52;;;;;;;;;;;20.00;52.50;;;;;;5041148;28;1922;-69
2022/03/31 13:21:19;;;;;;;;;;;19.90;52.50;;;;;;5045088;28;1508;-69
2022/03/31 13:23:44;;;;;;;;;;;19.90;52.50;;;;;;5045723;28;1621;-69
2022/03/31 13:26:10;;;;;;;;;;;19.90;52.50;;;;;;5042978;28;1543;-69
2022/03/31 13:28:36;;;;;;;;;;;19.90;52.50;;;;;;5045517;28;1567;-68
2022/03/31 13:31:02;;;;;;;;;;;19.90;52.60;;;;;;5044993;28;1524;-67
2022/03/31 13:33:27;;;;;;;;;;;19.90;52.60;;;;;;5042382;28;1493;-68
2022/03/31 13:35:53;;;;;;;;;;;19.90;52.60;;;;;;5041815;28;2027;-69
2022/03/31 13:38:18;;;;;;;;;;;19.90;52.60;;;;;;5041561;28;1918;-71
2022/03/31 13:40:44;;;;;;;;;;;19.90;52.70;;;;;;5045292;28;1505;-71
2022/03/31 13:43:09;;;;;;;;;;;19.90;52.70;;;;;;5043595;28;1539;-68
2022/03/31 13:45:35;;;;;;;;;;;19.90;52.70;;;;;;5043840;28;1488;-68
2022/03/31 13:48:00;;;;;;;;;;;19.90;52.70;;;;;;5044315;28;1541;-69
2022/03/31 13:50:26;;;;;;;;;;;19.90;52.70;;;;;;5045172;28;1564;-69
2022/03/31 13:55:35;;;;;;;;;;;19.90;52.80;;;;;;5041434;28;1414;-69
2022/03/31 14:03:29;;;;;;;;;;;19.80;52.80;;;;;;5039962;28;1931;-69
2022/03/31 14:05:55;;;;;;;;;;;19.80;52.90;;;;;;5042406;28;2406;-69
2022/03/31 14:08:20;;;;;;;;;;;19.80;52.90;;;;;;5039932;28;1605;-69
2022/03/31 14:10:46;;;;;;;;;;;19.80;52.90;;;;;;5042648;28;1594;-71
2022/03/31 14:13:11;;;;;;;;;;;19.80;52.90;;;;;;5035865;28;1474;-68
2022/03/31 14:15:38;;;;;;;;;;;19.80;52.90;;;;;;5043558;28;1459;-67
2022/03/31 14:18:06;;;;;;;;;;;19.80;52.90;;;;;;5043879;28;1902;-68
2022/03/31 14:20:31;;;;;;;;;;;19.80;52.90;;;;;;5053383;22;3759;-66
2022/03/31 14:22:57;;;;;;;;;;;19.80;53.00;;;;;;5042918;28;1200;-67
2022/03/31 14:25:22;;;;;;;;;;;19.80;53.00;;;;;;5042904;28;1527;-67
2022/03/31 14:27:47;;;;;;;;;;;19.80;53.00;;;;;;5044297;28;1517;-69
2022/03/31 14:30:13;;;;;;;;;;;19.80;53.00;;;;;;5042529;28;1619;-66
2022/03/31 14:32:40;;;;;;;;;;;19.80;53.00;;;;;;5041053;28;1968;-69
2022/03/31 14:35:06;;;;;;;;;;;19.80;53.00;;;;;;5033607;28;1848;-69
2022/03/31 14:37:31;;;;;;;;;;;19.70;53.00;;;;;;5031268;28;1950;-67
2022/03/31 14:39:57;;;;;;;;;;;19.70;53.00;;;;;;5031097;28;2388;-69
2022/03/31 14:42:22;;;;;;;;;;;19.80;53.00;;;;;;5021850;28;2329;-68